DIRECCIÓN GENERAL DE AERONÁUTICA CIVIL
DIRECCIÓN METEOROLÓGICA DE CHILE
INFORMACIÓN METAR Y TAF

FIR PUERTO MONTT

Estación: SCQP
METAR SCQP 231500Z 02010KT 9999 FEW030 BKN067 BKN200 11/08 Q1014=

TAF SCQP 231039Z 2312/2412 07006KT 9999 BKN040 OVC070 TX13/2319Z TN06 /2410Z TEMPO 2314/2318 5000 -SHRA BKN020 OVC050 BECMG 2322/2400 13005KT 5000 -RA BKN015 OVC040 TEMPO 2402/2407 VRB02KT 2000 -RADZ BKN008 OVC017=

Estación: SCVD
METAR SCVD 231500Z VRB02KT 9999 FEW003 SCT020 BKN200 10/10 Q1014=

TAF SCVD 231040Z 2312/2400 01006KT 7000 -SHRA BKN025 OVC060 TX12/ 2319Z TN08/2400Z TEMPO 2318/2322 4000 -RA BKN015 OVC025 BECMG 2321/2323 15005KT=

Estación: SCJO
METAR SCJO 231500Z 36007KT 9999 FEW020 BKN200 12/09 Q1014=

TAF SCJO 231040Z 2312/2400 36006KT 9999 SCT025 BKN070 TX12/2318Z TN08 /2400Z TEMPO 2312/2315 7000 BKN025 BECMG 2322/2400 15004KT=

Estación: SCTE
METAR SCTE 231500Z 34007KT 9999 SCT020 13/08 Q1014 NOSIG=

TAF SCTE 231040Z 2312/2412 35007KT 9999 BKN040 TX12/2318Z TN06/2409Z TEMPO 2312/2315 5000 -SHRA BKN025 BECMG 2321/2323 17005KT SCT015 BKN040 BECMG 2323/2401 VRB02KT BKN020 TEMPO 2408/2412 5000 -SHRA BKN015 OVC030=

Estación: SCPQ
METAR SCPQ 231500Z 34008KT 9999 SCT006 BKN017 10/09 Q1013=

TAF SCPQ 231041Z 2312/2400 35007KT 9999 BKN030 TX12/2318Z TN08/2400Z TEMPO 2312/2315 5000 -SHRA BKN012 OVC030 BECMG 2321/2323 28005KT SCT020 BKN040=

Estación: SCON
METAR SCON 231500Z AUTO VRB03KT CAVOK 13/10 Q1014=

TAF SCON 231041Z 2312/2400 36006KT 9999 BKN030 TX12/2318Z TN09/2400Z TEMPO 2312/2315 5000 -SHRA BKN015 OVC030 BECMG 2321/2323 29005KT BKN020=

Estación: SCTN
METAR SCTN NIL=

TAF SCTN NIL=

Estación: SCFT
METAR SCFT 231500Z AUTO VRB01KT 9999 ///009 08/05 Q1015=

TAF SCFT NIL=

Estación: SCAP
METAR SCAP 231500Z AUTO 23003KT 190V280 9999 FEW013 10/08 Q1021=

TAF SCAP NIL=

Estación: SCMK
METAR SCMK 231500Z 03007KT 9999 FEW015 11/09 Q1013=

TAF SCMK 231041Z 2312/2400 36006KT 5000 -RA BKN015 OVC025 TX11/2318Z TN08/2400Z TEMPO 2312/2315 2000 -RADZ BKN006 OVC015 BECMG 2321/2323 30005KT BKN015=

Estación: SCAS
METAR SCAS 222000Z /////KT 9999 FEW017 SCT040 OVC080 09/07 Q1012=

TAF SCAS NIL=

Estación: SCCY
METAR SCCY 231500Z 19006KT 9000 -SHRA BKN008 BKN030 07/05 Q1016=

TAF SCCY 231042Z 2312/2400 VRB01KT 7000 -SHRA BKN020 OVC030 TX10/ 2318Z TN05/2400Z TEMPO 2312/2316 17005KT 5000 -RA OVC020 BECMG 2321/2323 9999 BKN025 OVC040=

Estación: SCBA
METAR SCBA 231500Z 12002KT 9999 -RA SCT023 OVC046 04/03 Q1016 =

TAF SCBA 231043Z 2312/2412 12007KT 8000 -SHRA BKN020 OVC040 TX09/ 2318Z TN00/2410Z TEMPO 2312/2315 5000 RA OVC025 BECMG 2315/2317 VRB02KT 9999 BKN030 OVC070 BECMG 2400/2402 13008KT OVC030 TEMPO 2404/2410 4000 -SN OVC015=

Estación: SCCC
METAR SCCC 222000Z 19009KT 8000 -SHRA OVC033 06/05 Q1016=

TAF SCCC CECF 7687=

Estación: SCHR
METAR SCHR 222000Z 29008KT 9999 -SHRA BKN025 OVC050 07/04 Q1012=

TAF SCHR 221050Z 2212/2300 03007KT 9999 FEW040 TN00/2212Z TX06/2218Z BECMG 2214/2216 13005KT 9000 BKN035 PROB40 TEMPO 2221/2300 3000 RADZ SCT007=


Volver